Time;durP1;ratioP1;P1;durP2;ratioP2;P2;SDS_P1;SDS_P2;PMS_P1;PMS_P2;Temp;Humidity;BMP_temperature;BMP_pressure;BME280_temperature;BME280_humidity;BME280_pressure;Samples;Min_cycle;Max_cycle;Signal;HPM_P1;HPM_P2
2022/07/29 00:01:57;;;;;;;9.05;4.70;;;;;;;19.11;62.09;100988.67;1775797;80;21059;-48
2022/07/29 00:04:23;;;;;;;7.80;4.85;;;;;;;19.08;62.41;100987.19;1774981;79;21095;-47
2022/07/29 00:06:50;;;;;;;7.45;4.62;;;;;;;19.06;62.35;100987.86;1767031;80;21038;-48
2022/07/29 00:09:16;;;;;;;7.67;5.08;;;;;;;19.04;61.90;100991.16;1758458;80;21053;-47
2022/07/29 00:11:45;;;;;;;9.38;4.53;;;;;;;18.99;61.48;100981.48;1678657;82;21739;-47
2022/07/29 00:14:12;;;;;;;12.37;5.15;;;;;;;18.96;61.41;100985.81;1759671;80;21119;-48
2022/07/29 00:16:40;;;;;;;9.48;4.78;;;;;;;18.93;61.24;100983.49;1763896;80;21220;-47
2022/07/29 00:19:06;;;;;;;10.93;5.40;;;;;;;18.90;60.95;100987.30;1755814;80;21110;-47
2022/07/29 00:21:34;;;;;;;7.50;4.80;;;;;;;18.86;60.79;100989.98;1761080;79;21082;-47
2022/07/29 00:24:01;;;;;;;7.75;4.75;;;;;;;18.82;60.97;100991.25;1760877;80;21109;-47
2022/07/29 00:26:31;;;;;;;8.03;5.05;;;;;;;18.77;61.05;100996.73;1759403;79;21111;-48
2022/07/29 00:29:00;;;;;;;9.25;5.12;;;;;;;18.71;61.02;100995.05;1761808;80;21127;-48
2022/07/29 00:31:26;;;;;;;12.15;5.55;;;;;;;18.65;60.55;100994.36;1762712;79;21016;-47
2022/07/29 00:33:53;;;;;;;9.93;6.00;;;;;;;18.60;60.45;100994.52;1688080;82;21073;-47
2022/07/29 00:36:20;;;;;;;7.87;4.78;;;;;;;18.52;60.60;100994.80;1760542;80;21074;-47
2022/07/29 00:38:49;;;;;;;10.65;4.75;;;;;;;18.52;60.89;100989.47;1758432;79;21120;-48
2022/07/29 00:41:16;;;;;;;7.62;4.90;;;;;;;18.57;60.98;100997.81;1762159;80;21126;-48
2022/07/29 00:43:43;;;;;;;8.73;5.37;;;;;;;18.59;61.08;100988.84;1763970;80;22364;-47
2022/07/29 00:46:10;;;;;;;8.58;5.55;;;;;;;18.56;61.35;100986.83;1762906;79;21537;-48
2022/07/29 00:48:37;;;;;;;8.75;4.72;;;;;;;18.56;61.70;100986.01;1761103;80;21553;-47
2022/07/29 00:51:05;;;;;;;6.47;4.70;;;;;;;18.53;61.89;100980.48;1758418;80;21522;-48
2022/07/29 00:53:32;;;;;;;8.90;5.28;;;;;;;18.54;62.01;100986.16;1760418;80;21082;-48
2022/07/29 00:55:59;;;;;;;7.25;4.97;;;;;;;18.56;61.95;100983.34;1761055;79;21055;-48
2022/07/29 00:58:26;;;;;;;10.88;5.40;;;;;;;18.54;61.87;100986.64;1763139;80;21099;-48
2022/07/29 01:00:53;;;;;;;8.40;5.55;;;;;;;18.51;61.70;100989.14;1760989;79;21069;-47
2022/07/29 01:03:21;;;;;;;11.45;5.65;;;;;;;18.47;61.72;100987.78;1755186;80;21000;-48
2022/07/29 01:05:47;;;;;;;9.40;5.22;;;;;;;18.48;61.77;100984.64;1766269;79;21136;-47
2022/07/29 01:08:15;;;;;;;9.83;5.85;;;;;;;18.52;61.77;100987.30;1762470;80;21151;-48
2022/07/29 01:10:41;;;;;;;11.97;6.15;;;;;;;18.54;61.99;100982.64;1757467;80;21051;-48
2022/07/29 01:13:10;;;;;;;8.90;5.60;;;;;;;18.52;62.18;100982.80;1760697;79;21620;-48
2022/07/29 01:15:43;;;;;;;7.22;5.20;;;;;;;18.49;62.44;100978.30;1764037;79;21059;-48
2022/07/29 01:18:34;;;;;;;9.65;5.53;;;;;;;18.46;62.63;100982.13;1759822;80;21139;-47
2022/07/29 01:21:37;;;;;;;8.20;4.92;;;;;;;18.44;62.85;100989.45;1755661;79;21061;-50
2022/07/29 01:24:29;;;;;;;8.70;5.83;;;;;;;18.38;63.06;100991.41;1763002;80;21026;-47
2022/07/29 01:27:22;;;;;;;10.10;5.17;;;;;;;18.31;63.30;100988.55;1759992;80;21045;-48
2022/07/29 01:29:57;;;;;;;7.70;5.00;;;;;;;18.32;63.33;100980.88;1761282;79;21059;-48
2022/07/29 01:32:28;;;;;;;7.53;5.28;;;;;;;18.35;63.31;100979.73;1757752;80;21104;-48
2022/07/29 01:35:21;;;;;;;6.35;4.67;;;;;;;18.37;63.20;100983.93;1761193;80;21125;-48
2022/07/29 01:38:10;;;;;;;11.03;5.55;;;;;;;18.33;63.16;100980.41;1757885;80;21082;-48
2022/07/29 01:40:54;;;;;;;9.83;5.80;;;;;;;18.31;63.01;100988.55;1763614;79;21069;-48
2022/07/29 01:43:24;;;;;;;8.83;5.30;;;;;;;18.25;62.90;100983.84;1762397;80;21065;-48
2022/07/29 01:46:00;;;;;;;7.92;5.60;;;;;;;18.19;63.03;100987.16;1767223;79;21127;-49
2022/07/29 01:48:37;;;;;;;9.93;6.08;;;;;;;18.13;63.27;100974.47;1767708;79;21033;-48
2022/07/29 01:51:14;;;;;;;8.80;5.10;;;;;;;18.08;63.64;100974.11;1758595;79;21592;-49
2022/07/29 01:53:49;;;;;;;10.45;5.50;;;;;;;18.01;63.89;100970.73;1757666;80;21045;-47
2022/07/29 01:56:18;;;;;;;7.20;4.90;;;;;;;18.04;64.14;100972.73;1761541;80;21096;-47
2022/07/29 01:58:45;;;;;;;7.58;5.12;;;;;;;18.08;64.23;100971.44;1755988;80;21134;-48
2022/07/29 02:01:12;;;;;;;9.60;5.33;;;;;;;18.08;64.35;100975.44;1759971;80;21517;-49
2022/07/29 02:03:39;;;;;;;9.38;5.12;;;;;;;18.07;64.33;100970.62;1764725;79;21743;-48
2022/07/29 02:06:06;;;;;;;10.88;5.22;;;;;;;18.08;64.25;100970.11;1758982;80;21597;-47
2022/07/29 02:08:34;;;;;;;9.58;5.65;;;;;;;18.08;64.30;100974.11;1761408;80;21531;-48
2022/07/29 02:11:00;;;;;;;9.35;5.22;;;;;;;18.08;64.38;100972.27;1764764;80;21138;-48
2022/07/29 02:13:29;;;;;;;8.75;5.03;;;;;;;18.07;64.01;100975.09;1748414;80;21419;-48
2022/07/29 02:15:56;;;;;;;7.72;4.87;;;;;;;18.02;63.26;100980.88;1761850;80;21078;-48
2022/07/29 02:18:23;;;;;;;8.73;5.05;;;;;;;18.01;62.91;100979.22;1753189;80;21109;-47
2022/07/29 02:20:52;;;;;;;7.70;5.20;;;;;;;17.98;62.17;100992.84;1764485;80;21042;-48
2022/07/29 02:23:22;;;;;;;8.63;4.62;;;;;;;17.94;62.10;100994.16;1771539;80;21210;-47
2022/07/29 02:25:53;;;;;;;10.75;5.20;;;;;;;17.90;62.90;100989.63;1743873;80;21069;-48
2022/07/29 02:28:23;;;;;;;9.83;5.05;;;;;;;17.96;63.38;100985.02;1764252;80;21538;-48
2022/07/29 02:30:51;;;;;;;12.28;5.35;;;;;;;18.00;63.40;100986.86;1770665;80;21044;-47
2022/07/29 02:33:18;;;;;;;7.95;4.75;;;;;;;18.04;63.38;100986.91;1772202;80;21022;-48
2022/07/29 02:35:47;;;;;;;8.05;5.12;;;;;;;18.06;63.38;100989.41;1766320;79;21127;-48
2022/07/29 02:41:06;;;;;;;10.05;5.20;;;;;;;18.05;63.37;100991.22;1762351;80;21054;-48
2022/07/29 02:43:32;;;;;;;8.40;5.37;;;;;;;18.04;63.52;100994.89;1758044;80;21067;-48
2022/07/29 02:45:58;;;;;;;8.38;4.83;;;;;;;18.01;63.64;100996.03;1757455;79;21071;-48
2022/07/29 02:48:36;;;;;;;7.97;5.15;;;;;;;17.97;63.78;100993.35;1767809;80;21334;-47
2022/07/29 02:51:18;;;;;;;7.35;4.37;;;;;;;17.93;63.52;100993.81;1761351;79;21074;-48
2022/07/29 02:53:44;;;;;;;7.45;5.05;;;;;;;17.92;63.33;101002.30;1772445;80;21094;-48
2022/07/29 02:56:13;;;;;;;7.55;4.95;;;;;;;17.90;62.96;101005.59;1770022;79;21046;-49
2022/07/29 02:58:50;;;;;;;7.53;4.80;;;;;;;17.88;62.93;101004.92;1772327;80;21118;-47
2022/07/29 03:01:24;;;;;;;9.80;4.87;;;;;;;17.83;62.77;101005.85;1766862;80;21070;-47
2022/07/29 03:03:53;;;;;;;9.80;4.90;;;;;;;17.78;62.52;101006.81;1771720;80;21042;-47
2022/07/29 03:06:21;;;;;;;8.05;5.05;;;;;;;17.72;62.25;101005.62;1768436;80;21035;-49
2022/07/29 03:08:48;;;;;;;10.00;5.50;;;;;;;17.71;62.07;101007.09;1758767;80;21549;-48
2022/07/29 03:11:16;;;;;;;8.05;4.53;;;;;;;17.71;61.89;101004.44;1762223;79;21025;-47
2022/07/29 03:13:45;;;;;;;7.47;5.05;;;;;;;17.71;62.16;101008.42;1762913;80;21125;-47
2022/07/29 03:16:12;;;;;;;8.00;5.37;;;;;;;17.72;62.65;101002.09;1759862;80;21049;-48
2022/07/29 03:18:39;;;;;;;7.10;4.55;;;;;;;17.77;62.75;101017.11;1712883;81;21063;-48
2022/07/29 03:21:06;;;;;;;7.30;5.03;;;;;;;17.86;62.63;101014.86;1762569;80;20996;-49
2022/07/29 03:23:34;;;;;;;6.92;4.42;;;;;;;17.92;62.46;101008.96;1754714;79;21669;-47
2022/07/29 03:26:01;;;;;;;7.17;5.12;;;;;;;17.95;62.32;101011.28;1745083;80;21614;-48
2022/07/29 03:28:28;;;;;;;10.00;5.42;;;;;;;17.96;62.72;101008.97;1765006;79;21061;-48
2022/07/29 03:30:54;;;;;;;12.80;5.75;;;;;;;17.99;62.90;101009.17;1761889;79;21503;-47
2022/07/29 03:33:21;;;;;;;9.18;4.97;;;;;;;18.01;62.70;101005.85;1757294;81;21120;-48
2022/07/29 03:35:47;;;;;;;7.58;4.50;;;;;;;18.04;62.35;101000.22;1757564;81;21561;-47
2022/07/29 03:38:14;;;;;;;6.90;4.90;;;;;;;18.07;62.23;101010.56;1755080;81;22014;-47
2022/07/29 03:40:50;;;;;;;10.72;5.20;;;;;;;18.10;62.06;101011.55;1754827;80;21543;-48
2022/07/29 03:43:17;;;;;;;9.73;5.12;;;;;;;18.13;62.13;101008.58;1757348;81;21440;-48
2022/07/29 03:45:47;;;;;;;8.58;5.28;;;;;;;18.18;62.25;101014.78;1756083;79;21566;-48
2022/07/29 03:48:16;;;;;;;10.43;5.00;;;;;;;18.31;62.31;101009.86;1760056;81;21035;-47
2022/07/29 03:50:43;;;;;;;7.20;4.72;;;;;;;18.44;61.93;101019.23;1755516;79;21196;-49
2022/07/29 03:53:11;;;;;;;8.90;5.05;;;;;;;18.49;61.47;101023.59;1751990;81;21067;-48
2022/07/29 03:55:41;;;;;;;8.48;5.15;;;;;;;18.55;61.29;101017.13;1752529;81;21110;-47
2022/07/29 03:58:10;;;;;;;10.45;4.90;;;;;;;18.60;61.47;101021.98;1761718;81;21579;-48
2022/07/29 04:00:37;;;;;;;7.10;4.95;;;;;;;18.65;61.47;101023.67;1733171;81;22572;-47
2022/07/29 04:03:04;;;;;;;7.50;5.05;;;;;;;18.72;61.56;101026.54;1763384;79;22848;-50
2022/07/29 04:05:30;;;;;;;8.23;4.83;;;;;;;18.75;61.14;101024.38;1770578;80;21539;-47
2022/07/29 04:07:57;;;;;;;8.08;4.78;;;;;;;18.81;61.09;101026.92;1750751;81;21044;-47
2022/07/29 04:10:23;;;;;;;9.30;5.75;;;;;;;18.85;61.02;101026.95;1766203;81;21146;-48
2022/07/29 04:12:50;;;;;;;8.33;5.47;;;;;;;18.90;60.79;101031.81;1759891;79;21069;-47
2022/07/29 04:15:17;;;;;;;8.73;5.62;;;;;;;18.97;61.10;101030.16;1765992;80;21203;-48
2022/07/29 04:17:43;;;;;;;9.80;5.78;;;;;;;19.10;61.08;101029.70;1768443;80;21041;-48
2022/07/29 04:20:13;;;;;;;8.68;5.28;;;;;;;19.22;60.81;101026.23;1772496;79;20982;-48
2022/07/29 04:22:40;;;;;;;10.58;5.47;;;;;;;19.30;60.76;101034.25;1765225;79;21541;-48
2022/07/29 04:25:08;;;;;;;8.50;5.78;;;;;;;19.38;60.72;101024.07;1764517;80;21057;-48
2022/07/29 04:27:59;;;;;;;8.55;6.10;;;;;;;19.44;61.01;101032.77;1766200;79;21744;-48
2022/07/29 04:30:08;;;;;;;10.20;5.92;;;;;;;19.48;60.78;101028.27;1765718;80;21306;-48
2022/07/29 04:32:35;;;;;;;7.90;5.10;;;;;;;19.50;60.95;101029.41;1761444;80;21020;-47
2022/07/29 04:35:04;;;;;;;8.08;4.80;;;;;;;19.53;61.21;101025.08;1773175;80;21123;-46
2022/07/29 04:37:31;;;;;;;8.28;5.25;;;;;;;19.62;61.48;101020.61;1769428;79;20991;-47
2022/07/29 04:39:58;;;;;;;8.83;5.35;;;;;;;19.74;61.30;101020.59;1769319;80;21135;-46
2022/07/29 04:42:25;;;;;;;8.25;5.30;;;;;;;19.83;61.13;101014.27;1767183;80;21058;-47
2022/07/29 04:44:52;;;;;;;7.08;5.12;;;;;;;19.91;61.29;101016.62;1777300;80;21596;-47
2022/07/29 04:47:20;;;;;;;8.90;4.50;;;;;;;19.98;60.98;101012.26;1763340;79;21555;-46
2022/07/29 04:49:47;;;;;;;7.35;4.42;;;;;;;20.04;60.54;101011.59;1771808;80;21027;-47
2022/07/29 04:52:13;;;;;;;9.65;5.15;;;;;;;20.10;60.33;101008.22;1769507;79;21125;-50
2022/07/29 04:54:40;;;;;;;9.80;4.80;;;;;;;20.15;60.50;101009.87;1763615;79;21045;-47
2022/07/29 04:57:07;;;;;;;8.80;4.50;;;;;;;20.21;60.42;101012.39;1766413;80;21478;-47
2022/07/29 04:59:34;;;;;;;7.70;4.35;;;;;;;20.25;60.12;101011.03;1772800;80;21055;-47
2022/07/29 05:02:00;;;;;;;7.28;4.67;;;;;;;20.29;59.34;101008.36;1767033;79;21252;-46
2022/07/29 05:04:28;;;;;;;7.15;3.87;;;;;;;20.33;59.05;101007.52;1764227;80;21058;-46
2022/07/29 05:06:55;;;;;;;6.40;4.17;;;;;;;20.38;58.68;101014.52;1763360;79;21580;-46
2022/07/29 05:09:22;;;;;;;5.85;3.75;;;;;;;20.41;58.37;101011.50;1789754;79;21042;-47
2022/07/29 05:11:49;;;;;;;6.33;3.70;;;;;;;20.45;58.10;101011.98;1763769;79;21018;-46
2022/07/29 05:14:16;;;;;;;7.80;3.80;;;;;;;20.48;57.82;101006.30;1778994;80;21137;-47
2022/07/29 05:16:43;;;;;;;5.87;2.80;;;;;;;20.55;57.41;101005.93;1776206;80;21124;-46
2022/07/29 05:19:10;;;;;;;10.25;3.83;;;;;;;20.67;56.93;101013.92;1781182;80;21097;-49
2022/07/29 05:21:37;;;;;;;8.85;3.10;;;;;;;20.78;56.28;101014.05;1775258;79;21046;-46
2022/07/29 05:24:06;;;;;;;6.87;2.62;;;;;;;20.87;55.52;101012.17;1779685;80;21054;-46
2022/07/29 05:26:32;;;;;;;5.62;3.00;;;;;;;20.94;54.25;101009.94;1779703;79;21107;-46
2022/07/29 05:29:00;;;;;;;9.53;2.85;;;;;;;21.02;53.17;101017.09;1761921;79;21048;-48
2022/07/29 05:31:27;;;;;;;6.12;3.05;;;;;;;21.05;52.54;101015.92;1773735;79;21043;-47
2022/07/29 05:33:53;;;;;;;5.80;2.58;;;;;;;21.10;52.76;101013.55;1777427;80;21097;-46
2022/07/29 05:36:20;;;;;;;6.40;3.02;;;;;;;21.16;53.20;101018.17;1770056;79;21600;-46
2022/07/29 05:38:46;;;;;;;6.22;2.90;;;;;;;21.23;53.22;101016.48;1768948;80;22417;-46
2022/07/29 05:41:12;;;;;;;7.40;3.08;;;;;;;21.30;53.30;101014.75;1764440;79;21242;-46
2022/07/29 05:43:39;;;;;;;12.85;3.35;;;;;;;21.38;52.71;101013.02;1776707;80;21399;-46
2022/07/29 05:46:07;;;;;;;8.15;3.45;;;;;;;21.44;52.53;101013.13;1781399;79;21026;-46
2022/07/29 05:48:34;;;;;;;6.85;3.30;;;;;;;21.51;52.15;101017.30;1778537;80;21034;-46
2022/07/29 05:51:01;;;;;;;10.93;3.45;;;;;;;21.60;52.39;101008.69;1771041;80;21045;-46
2022/07/29 05:53:29;;;;;;;8.28;3.95;;;;;;;21.67;52.22;101007.80;1782449;79;21138;-46
2022/07/29 05:55:57;;;;;;;8.58;3.70;;;;;;;21.74;52.50;101011.08;1767282;79;21513;-46
2022/07/29 05:58:23;;;;;;;14.65;7.30;;;;;;;21.83;53.03;100997.95;1759749;80;21099;-47
2022/07/29 06:00:52;;;;;;;7.33;3.65;;;;;;;21.89;53.84;100998.05;1780158;80;21015;-47
2022/07/29 06:03:19;;;;;;;5.85;2.80;;;;;;;21.98;54.79;101001.48;1777006;79;21176;-46
2022/07/29 06:05:46;;;;;;;5.80;3.02;;;;;;;22.11;54.56;101004.02;1765750;79;21133;-47
2022/07/29 06:08:12;;;;;;;6.72;2.72;;;;;;;22.25;54.00;101009.91;1767764;80;21113;-47
2022/07/29 06:10:39;;;;;;;7.70;2.70;;;;;;;22.39;53.46;101005.10;1775344;80;21146;-47
2022/07/29 06:13:06;;;;;;;5.87;2.47;;;;;;;22.48;52.77;101009.85;1767824;80;21059;-47
2022/07/29 06:15:34;;;;;;;7.28;2.85;;;;;;;22.53;52.36;101005.28;1765260;80;21121;-46
2022/07/29 06:18:01;;;;;;;7.72;2.85;;;;;;;22.59;52.16;100997.81;1774641;79;21769;-46
2022/07/29 06:20:32;;;;;;;7.20;2.65;;;;;;;22.66;51.70;100999.23;1767800;78;21072;-47
2022/07/29 06:22:59;;;;;;;5.20;2.40;;;;;;;22.72;51.41;101004.68;1772258;79;21676;-47
2022/07/29 06:25:28;;;;;;;7.60;2.85;;;;;;;22.78;51.14;101010.64;1774481;80;21556;-47
2022/07/29 06:27:55;;;;;;;10.90;2.45;;;;;;;22.84;51.41;101005.55;1775235;78;21549;-47
2022/07/29 06:30:22;;;;;;;5.50;2.60;;;;;;;22.88;50.40;101013.03;1775863;80;21129;-48
2022/07/29 06:32:50;;;;;;;4.90;2.37;;;;;;;22.93;50.37;101011.95;1772641;80;22241;-48
2022/07/29 06:35:17;;;;;;;5.87;2.15;;;;;;;22.98;50.49;101014.05;1778849;78;21513;-48
2022/07/29 06:37:44;;;;;;;6.33;2.70;;;;;;;23.02;50.37;101011.84;1776340;78;21044;-49
2022/07/29 06:42:56;;;;;;;;;;;;;;;23.14;50.15;101011.69;1781747;78;22067;-48
2022/07/29 06:45:24;;;;;;;7.05;2.70;;;;;;;23.22;49.87;101008.03;1760664;78;21157;-48
2022/07/29 06:47:50;;;;;;;4.72;2.33;;;;;;;23.25;50.12;101012.53;1770730;80;21085;-48
2022/07/29 06:50:19;;;;;;;7.05;2.72;;;;;;;23.31;49.82;101008.24;1780397;80;21003;-48
2022/07/29 06:52:47;;;;;;;8.68;2.37;;;;;;;23.35;49.46;101004.14;1781099;78;21130;-48
2022/07/29 06:55:14;;;;;;;3.87;1.60;;;;;;;23.41;47.67;101006.06;1779434;80;21875;-48
2022/07/29 06:57:41;;;;;;;8.73;2.10;;;;;;;23.49;47.65;101009.97;1774749;79;21082;-48
2022/07/29 07:00:10;;;;;;;6.37;1.98;;;;;;;23.55;46.44;101002.98;1778137;80;21551;-48
2022/07/29 07:02:37;;;;;;;4.10;2.10;;;;;;;23.65;46.19;101008.03;1777643;78;21049;-48
2022/07/29 07:05:06;;;;;;;5.15;1.80;;;;;;;23.72;46.22;101007.07;1765514;80;21105;-48
2022/07/29 07:07:33;;;;;;;5.37;1.57;;;;;;;23.80;46.16;101010.63;1779467;79;21256;-48
2022/07/29 07:10:01;;;;;;;5.40;2.37;;;;;;;23.87;46.27;101008.36;1777510;78;21039;-47
2022/07/29 07:12:29;;;;;;;4.70;1.72;;;;;;;23.96;45.94;101002.84;1766821;80;21498;-48
2022/07/29 07:14:57;;;;;;;5.53;2.00;;;;;;;24.06;45.21;101004.66;1772543;80;21570;-48
2022/07/29 07:17:24;;;;;;;5.25;2.33;;;;;;;24.08;45.20;101006.63;1766158;80;21499;-48
2022/07/29 07:19:52;;;;;;;5.87;1.90;;;;;;;24.11;45.04;101008.41;1760042;80;21035;-48
2022/07/29 07:22:19;;;;;;;5.17;1.82;;;;;;;24.17;45.04;101010.81;1754529;80;21095;-48
2022/07/29 07:24:46;;;;;;;4.53;2.00;;;;;;;24.23;45.26;101008.69;1758723;79;21078;-48
2022/07/29 07:27:14;;;;;;;5.20;2.25;;;;;;;24.32;44.82;101008.53;1752869;79;21097;-48
2022/07/29 07:29:40;;;;;;;8.93;2.27;;;;;;;24.37;44.85;101006.08;1754196;80;21011;-48
2022/07/29 07:32:08;;;;;;;4.90;2.00;;;;;;;24.44;44.09;101010.97;1765567;79;21200;-48
2022/07/29 07:34:35;;;;;;;4.58;2.10;;;;;;;24.50;44.25;101012.05;1767279;80;21062;-48
2022/07/29 07:37:01;;;;;;;4.95;1.82;;;;;;;24.56;44.34;101010.77;1746440;80;21023;-48
2022/07/29 07:39:29;;;;;;;6.85;2.42;;;;;;;24.65;43.66;101014.11;1764119;80;21098;-48
2022/07/29 07:41:55;;;;;;;4.95;2.10;;;;;;;24.70;42.56;101012.17;1767315;80;21083;-48
2022/07/29 07:44:24;;;;;;;5.85;2.50;;;;;;;24.72;43.48;101016.83;1757389;79;21042;-48
2022/07/29 07:46:51;;;;;;;4.95;2.25;;;;;;;24.72;43.16;101015.48;1761710;79;21529;-48
2022/07/29 07:49:18;;;;;;;7.10;2.62;;;;;;;24.73;42.52;101017.97;1697220;82;21020;-48
2022/07/29 07:51:45;;;;;;;4.10;2.02;;;;;;;24.76;42.53;101019.42;1714557;82;21534;-48
2022/07/29 07:54:11;;;;;;;6.60;2.27;;;;;;;24.81;42.65;101026.37;1720261;83;21564;-48
2022/07/29 07:56:38;;;;;;;7.05;2.55;;;;;;;24.85;42.45;101027.64;1713938;83;21143;-48
2022/07/29 07:59:06;;;;;;;6.00;2.90;;;;;;;24.90;42.26;101025.67;1714875;83;21561;-48
2022/07/29 08:01:34;;;;;;;7.15;3.45;;;;;;;24.93;41.33;101023.43;1722997;81;21604;-48
2022/07/29 08:04:00;;;;;;;9.28;3.20;;;;;;;24.99;41.49;101026.64;1714232;82;21596;-48
2022/07/29 08:06:28;;;;;;;6.30;2.20;;;;;;;25.04;41.26;101026.86;1711786;83;21065;-49
2022/07/29 08:08:55;;;;;;;4.80;2.42;;;;;;;25.12;41.38;101026.38;1713166;81;21130;-49
2022/07/29 08:11:22;;;;;;;6.85;3.20;;;;;;;25.16;40.99;101032.48;1715715;83;21019;-51
2022/07/29 08:13:48;;;;;;;6.28;2.83;;;;;;;25.20;40.66;101027.52;1710266;83;21045;-48
2022/07/29 08:16:17;;;;;;;5.17;2.85;;;;;;;25.23;40.37;101025.77;1705585;83;21548;-48
2022/07/29 08:18:44;;;;;;;4.78;2.35;;;;;;;25.27;41.23;101026.21;1711116;83;21082;-49
2022/07/29 08:21:14;;;;;;;5.70;2.50;;;;;;;25.35;41.18;101026.87;1686516;83;22167;-48
2022/07/29 08:23:48;;;;;;;5.53;2.75;;;;;;;25.43;40.46;101027.70;1710094;82;21570;-48
2022/07/29 08:26:14;;;;;;;5.75;2.50;;;;;;;25.47;40.48;101027.09;1711325;83;21046;-48
2022/07/29 08:28:45;;;;;;;6.50;2.62;;;;;;;25.49;39.89;101033.63;1712581;83;21008;-48
2022/07/29 08:31:10;;;;;;;6.37;2.37;;;;;;;25.49;39.53;101033.63;1720356;81;21122;-48
2022/07/29 08:33:37;;;;;;;5.20;2.30;;;;;;;25.48;39.53;101028.73;1723666;81;21221;-49
2022/07/29 08:36:06;;;;;;;6.37;2.77;;;;;;;25.54;40.56;101036.53;1713257;81;21082;-49
2022/07/29 08:38:34;;;;;;;9.30;2.60;;;;;;;25.64;40.99;101033.40;1715727;82;21086;-48
2022/07/29 08:41:01;;;;;;;5.30;2.45;;;;;;;25.72;40.37;101031.36;1719698;83;21073;-48
2022/07/29 08:43:28;;;;;;;6.03;2.85;;;;;;;25.80;40.28;101031.64;1711102;82;21086;-48
2022/07/29 08:45:55;;;;;;;5.00;2.40;;;;;;;25.87;40.62;101031.14;1721575;83;21231;-48
2022/07/29 08:48:23;;;;;;;6.42;2.47;;;;;;;25.96;40.36;101025.05;1724142;81;21015;-49
2022/07/29 08:50:58;;;;;;;8.83;2.95;;;;;;;26.04;40.61;101027.53;1715158;82;21138;-48
2022/07/29 08:53:26;;;;;;;7.22;2.60;;;;;;;26.14;41.08;101025.72;1706279;81;21141;-48
2022/07/29 08:55:54;;;;;;;5.83;2.67;;;;;;;26.27;40.29;101016.78;1731043;80;21076;-49
2022/07/29 08:58:21;;;;;;;5.55;2.67;;;;;;;26.36;40.57;101019.58;1703322;83;21150;-49
2022/07/29 09:00:52;;;;;;;5.42;2.30;;;;;;;26.47;40.57;101015.38;1762933;80;21035;-48
2022/07/29 09:03:22;;;;;;;5.12;2.47;;;;;;;26.60;40.35;101007.77;1769485;79;21570;-48
2022/07/29 09:05:49;;;;;;;5.67;2.52;;;;;;;26.76;39.87;101009.16;1771502;80;21078;-49
2022/07/29 09:08:17;;;;;;;4.58;2.20;;;;;;;26.88;40.17;101006.94;1770649;79;21032;-49
2022/07/29 09:10:44;;;;;;;6.12;2.10;;;;;;;27.02;39.57;101008.21;1763564;80;21139;-49
2022/07/29 09:13:12;;;;;;;5.40;2.47;;;;;;;27.08;39.14;101010.02;1760809;79;21685;-48
2022/07/29 09:15:38;;;;;;;5.12;2.35;;;;;;;27.13;38.13;101003.45;1745510;80;21038;-48
2022/07/29 09:18:05;;;;;;;5.03;2.35;;;;;;;27.21;38.19;101000.48;1750802;80;21471;-49
2022/07/29 09:23:19;;;;;;;5.67;2.37;;;;;;;27.44;38.62;101001.83;1787509;79;21011;-47
2022/07/29 09:25:46;;;;;;;5.33;2.40;;;;;;;27.52;38.13;101004.26;1746459;79;21082;-47
2022/07/29 09:28:18;;;;;;;4.90;2.58;;;;;;;27.54;37.00;101007.56;1745906;80;21058;-49
2022/07/29 09:30:56;;;;;;;5.00;2.40;;;;;;;27.59;37.43;101000.16;1755668;79;21052;-47
2022/07/29 09:33:24;;;;;;;5.47;2.20;;;;;;;27.65;38.33;101002.48;1761393;80;21059;-48
2022/07/29 09:36:07;;;;;;;5.30;2.67;;;;;;;27.69;38.38;101000.98;1763375;80;21142;-48
2022/07/29 09:38:39;;;;;;;6.92;2.30;;;;;;;27.75;38.70;100998.22;1748659;80;21101;-48
2022/07/29 09:41:08;;;;;;;4.37;2.27;;;;;;;27.87;39.03;101001.55;1768494;79;21484;-48
2022/07/29 09:43:34;;;;;;;5.75;2.50;;;;;;;28.00;38.64;101000.64;1763213;79;21082;-48
2022/07/29 09:46:11;;;;;;;4.97;2.30;;;;;;;28.04;37.78;101001.33;1770989;80;21110;-48
2022/07/29 09:48:38;;;;;;;4.87;2.22;;;;;;;28.00;37.52;100997.94;1770497;80;21123;-48
2022/07/29 09:51:06;;;;;;;4.60;2.15;;;;;;;28.01;37.22;100999.56;1744711;80;21085;-48
2022/07/29 09:53:36;;;;;;;6.60;2.42;;;;;;;28.02;36.80;100997.17;1748547;80;21253;-48
2022/07/29 09:56:04;;;;;;;5.95;2.47;;;;;;;28.04;37.48;100997.77;1768420;80;21047;-48
2022/07/29 09:58:33;;;;;;;6.15;2.37;;;;;;;28.04;38.07;100993.21;1770242;80;20991;-48
2022/07/29 10:01:00;;;;;;;4.05;2.10;;;;;;;28.09;38.14;100991.16;1771333;79;21131;-48
2022/07/29 10:03:27;;;;;;;5.55;2.45;;;;;;;28.19;37.60;100984.70;1764979;80;21051;-48
2022/07/29 10:06:08;;;;;;;7.03;2.25;;;;;;;28.21;36.57;100987.19;1766922;80;21534;-48
2022/07/29 10:08:37;;;;;;;3.75;2.02;;;;;;;28.26;36.81;100984.62;1764397;80;21127;-48
2022/07/29 10:11:18;;;;;;;4.50;1.90;;;;;;;28.27;36.04;100981.70;1771917;80;21008;-49
2022/07/29 10:16:21;;;;;;;4.78;2.08;;;;;;;28.47;35.33;100972.52;1800326;79;23107;-50
2022/07/29 10:18:48;;;;;;;3.67;1.65;;;;;;;28.52;34.45;100978.08;1786168;80;21043;-48
2022/07/29 10:21:16;;;;;;;5.00;2.17;;;;;;;28.48;33.50;100979.57;1785800;80;21046;-47
2022/07/29 10:23:42;;;;;;;4.10;2.00;;;;;;;28.44;34.25;100976.50;1780113;79;20967;-47
2022/07/29 10:26:11;;;;;;;5.15;1.90;;;;;;;28.51;34.16;100976.41;1770483;79;21580;-50
2022/07/29 10:28:38;;;;;;;4.20;2.02;;;;;;;28.59;34.48;100972.08;1775147;80;21090;-48
2022/07/29 10:31:06;;;;;;;4.30;1.95;;;;;;;28.60;33.98;100973.74;1763691;79;20992;-48
2022/07/29 10:33:47;;;;;;;4.47;2.25;;;;;;;28.54;34.44;100973.26;1752563;80;21101;-48
2022/07/29 10:36:46;;;;;;;4.35;2.20;;;;;;;28.56;34.21;100972.53;1766298;80;21038;-48
2022/07/29 10:39:33;;;;;;;4.80;2.58;;;;;;;28.65;33.84;100968.47;1766558;80;21464;-49
2022/07/29 10:42:23;;;;;;;5.70;2.40;;;;;;;28.73;33.58;100963.23;1763368;80;21053;-49
2022/07/29 10:44:50;;;;;;;5.15;2.30;;;;;;;28.74;33.42;100962.73;1768538;80;21017;-47
2022/07/29 10:47:26;;;;;;;6.97;2.40;;;;;;;28.66;32.91;100957.91;1756434;80;21133;-48
2022/07/29 10:49:59;;;;;;;4.17;2.20;;;;;;;28.63;33.61;100962.97;1785997;80;21030;-48
2022/07/29 10:52:56;;;;;;;4.92;2.50;;;;;;;28.62;33.92;100960.80;1759881;79;21079;-48
2022/07/29 10:55:42;;;;;;;4.22;2.22;;;;;;;28.65;33.72;100954.11;1750473;80;21047;-49
2022/07/29 10:58:20;;;;;;;5.17;2.20;;;;;;;28.64;34.30;100959.22;1771043;80;21505;-47
2022/07/29 11:00:52;;;;;;;4.47;1.98;;;;;;;28.59;34.15;100954.48;1766883;80;21104;-48
2022/07/29 11:03:48;;;;;;;4.97;2.08;;;;;;;28.48;33.62;100957.92;1775905;80;21038;-48
2022/07/29 11:06:18;;;;;;;4.78;2.25;;;;;;;28.44;33.77;100960.80;1783277;80;21055;-48
2022/07/29 11:08:44;;;;;;;4.55;2.47;;;;;;;28.45;34.41;100961.92;1774811;80;21143;-48
2022/07/29 11:11:29;;;;;;;6.53;2.35;;;;;;;28.49;34.52;100962.28;1772631;80;21428;-48
2022/07/29 11:13:56;;;;;;;4.62;1.90;;;;;;;28.52;34.59;100958.59;1770174;80;21134;-49
2022/07/29 11:16:25;;;;;;;6.58;2.60;;;;;;;28.62;35.02;100959.98;1762691;79;21005;-49
2022/07/29 11:19:15;;;;;;;5.75;2.50;;;;;;;28.69;35.55;100956.64;1759145;80;21031;-49
2022/07/29 11:21:47;;;;;;;6.78;2.65;;;;;;;28.82;35.59;100952.40;1761415;80;21047;-47
2022/07/29 11:24:20;;;;;;;4.47;2.12;;;;;;;29.07;34.54;100957.66;1754253;80;21107;-48
2022/07/29 11:27:12;;;;;;;4.55;1.95;;;;;;;29.26;35.11;100946.77;1757734;80;21261;-48
2022/07/29 11:30:03;;;;;;;7.55;2.80;;;;;;;29.36;33.12;100948.36;1757766;80;21510;-48
2022/07/29 11:32:41;;;;;;;4.80;2.33;;;;;;;29.37;32.25;100942.40;1755580;80;21053;-48
2022/07/29 11:35:22;;;;;;;4.53;2.47;;;;;;;29.37;32.54;100940.53;1752274;80;21099;-49
2022/07/29 11:38:26;;;;;;;4.78;2.50;;;;;;;29.45;33.02;100927.99;1757479;80;21048;-48
2022/07/29 11:41:27;;;;;;;5.83;2.55;;;;;;;29.53;32.33;100930.05;1754379;80;21134;-48
2022/07/29 11:43:57;;;;;;;4.55;2.52;;;;;;;29.54;32.29;100932.53;1756994;80;21031;-48
2022/07/29 11:46:48;;;;;;;5.28;2.33;;;;;;;29.51;32.32;100926.75;1772604;80;21032;-48
2022/07/29 11:49:24;;;;;;;4.75;2.33;;;;;;;29.46;32.38;100924.74;1750641;80;21543;-49